Time,TemperatureF,DewpointF,PressureIn,WindDirection,WindDirectionDegrees,WindSpeedMPH,WindSpeedGustMPH,Humidity,HourlyPrecipIn,Conditions,Clouds,dailyrainin,SoftwareType,DateUTC
2013-08-28 00:05:00,58.9,58.0,29.85,SE,146,7.0,12.0,95,0.00,,,0.00,weatherlink.com 1.10,2013-08-28 07:05:00,
2013-08-28 00:20:00,58.9,58.0,29.85,South,189,3.0,15.0,95,0.00,,,0.00,weatherlink.com 1.10,2013-08-28 07:20:00,
2013-08-28 00:35:00,58.8,57.0,29.85,South,184,3.0,12.0,95,0.00,,,0.00,weatherlink.com 1.10,2013-08-28 07:35:00,
2013-08-28 00:50:00,58.9,58.0,29.85,WSW,239,4.0,10.0,95,0.00,,,0.00,weatherlink.com 1.10,2013-08-28 07:50:00,
2013-08-28 01:05:00,58.8,57.0,29.84,SE,134,4.0,11.0,95,0.00,,,0.00,weatherlink.com 1.10,2013-08-28 08:05:00,
2013-08-28 01:20:00,58.6,57.0,29.84,SSE,150,5.0,12.0,95,0.00,,,0.00,weatherlink.com 1.10,2013-08-28 08:20:00,
2013-08-28 01:50:00,58.7,58.0,29.84,ESE,115,7.0,12.0,96,0.00,,,0.00,weatherlink.com 1.10,2013-08-28 08:50:00,
2013-08-28 02:05:00,58.6,58.0,29.84,SE,128,4.0,12.0,96,0.00,,,0.00,weatherlink.com 1.10,2013-08-28 09:05:00,
2013-08-28 02:20:00,58.6,58.0,29.84,SSE,156,8.0,12.0,96,0.00,,,0.00,weatherlink.com 1.10,2013-08-28 09:20:00,
2013-08-28 02:35:00,58.3,57.0,29.84,SSE,148,4.0,11.0,96,0.00,,,0.00,weatherlink.com 1.10,2013-08-28 09:35:00,
2013-08-28 02:50:00,58.3,57.0,29.84,SE,142,4.0,10.0,96,0.00,,,0.00,weatherlink.com 1.10,2013-08-28 09:50:00,
2013-08-28 03:05:00,58.6,58.0,29.84,SSE,167,7.0,9.0,97,0.00,,,0.00,weatherlink.com 1.10,2013-08-28 10:05:00,
2013-08-28 03:20:00,58.6,58.0,29.84,SW,215,4.0,8.0,97,0.00,,,0.00,weatherlink.com 1.10,2013-08-28 10:20:00,
2013-08-28 03:35:00,58.4,58.0,29.84,South,187,3.0,11.0,97,0.00,,,0.00,weatherlink.com 1.10,2013-08-28 10:35:00,
2013-08-28 03:50:00,58.5,58.0,29.84,SSE,158,7.0,12.0,97,0.00,,,0.00,weatherlink.com 1.10,2013-08-28 10:50:00,
2013-08-28 04:05:00,58.5,58.0,29.83,SSE,166,8.0,9.0,97,0.00,,,0.00,weatherlink.com 1.10,2013-08-28 11:05:00,
2013-08-28 04:20:00,58.5,58.0,29.83,SW,218,6.0,10.0,97,0.00,,,0.00,weatherlink.com 1.10,2013-08-28 11:20:00,
2013-08-28 04:35:00,58.4,58.0,29.83,WNW,290,4.0,15.0,97,0.00,,,0.00,weatherlink.com 1.10,2013-08-28 11:35:00,
2013-08-28 04:50:00,58.1,57.0,29.84,SE,141,3.0,9.0,97,0.00,,,0.00,weatherlink.com 1.10,2013-08-28 11:50:00,
2013-08-28 05:05:00,58.4,58.0,29.84,South,174,3.0,11.0,97,0.00,,,0.00,weatherlink.com 1.10,2013-08-28 12:05:00,
2013-08-28 05:20:00,58.4,58.0,29.84,SSW,195,8.0,8.0,97,0.00,,,0.00,weatherlink.com 1.10,2013-08-28 12:20:00,
2013-08-28 05:35:00,58.3,58.0,29.84,SSE,153,3.0,10.0,97,0.00,,,0.00,weatherlink.com 1.10,2013-08-28 12:35:00,
2013-08-28 05:50:00,58.2,57.0,29.84,SSE,148,4.0,9.0,97,0.00,,,0.00,weatherlink.com 1.10,2013-08-28 12:50:00,
2013-08-28 06:05:00,58.2,57.0,29.85,WSW,238,5.0,8.0,97,0.00,,,0.00,weatherlink.com 1.10,2013-08-28 13:05:00,
2013-08-28 06:20:00,58.2,57.0,29.85,SSE,160,3.0,8.0,97,0.00,,,0.00,weatherlink.com 1.10,2013-08-28 13:20:00,
2013-08-28 06:35:00,58.3,58.0,29.86,SSW,197,3.0,11.0,97,0.00,,,0.00,weatherlink.com 1.10,2013-08-28 13:35:00,
2013-08-28 06:50:00,58.5,58.0,29.86,SW,231,4.0,10.0,97,0.00,,,0.00,weatherlink.com 1.10,2013-08-28 13:50:00,
2013-08-28 07:05:00,58.5,58.0,29.86,South,186,5.0,10.0,97,0.00,,,0.00,weatherlink.com 1.10,2013-08-28 14:05:00,
2013-08-28 07:20:00,58.4,58.0,29.87,SSW,195,8.0,11.0,97,0.00,,,0.00,weatherlink.com 1.10,2013-08-28 14:20:00,
2013-08-28 07:35:00,58.5,58.0,29.88,SSW,197,4.0,11.0,97,0.00,,,0.00,weatherlink.com 1.10,2013-08-28 14:35:00,
2013-08-28 07:50:00,58.8,58.0,29.88,SE,143,6.0,9.0,97,0.00,,,0.00,weatherlink.com 1.10,2013-08-28 14:50:00,
2013-08-28 08:05:00,59.1,58.0,29.88,SW,219,2.0,8.0,96,0.00,,,0.00,weatherlink.com 1.10,2013-08-28 15:05:00,
2013-08-28 08:20:00,59.2,58.0,29.89,SSW,208,2.0,12.0,96,0.00,,,0.00,weatherlink.com 1.10,2013-08-28 15:20:00,
2013-08-28 08:35:00,59.7,59.0,29.89,SE,142,2.0,9.0,96,0.00,,,0.00,weatherlink.com 1.10,2013-08-28 15:35:00,
2013-08-28 08:51:00,60.3,59.0,29.89,SSW,205,6.0,8.0,95,0.00,,,0.00,weatherlink.com 1.10,2013-08-28 15:51:00,
2013-08-28 09:06:00,60.8,59.0,29.89,SSW,205,4.0,12.0,94,0.00,,,0.00,weatherlink.com 1.10,2013-08-28 16:06:00,
2013-08-28 09:21:00,61.8,60.0,29.90,SW,214,4.0,9.0,92,0.00,,,0.00,weatherlink.com 1.10,2013-08-28 16:21:00,
2013-08-28 09:36:00,62.5,60.0,29.90,SSW,193,6.0,9.0,91,0.00,,,0.00,weatherlink.com 1.10,2013-08-28 16:36:00,
2013-08-28 10:21:00,63.9,60.0,29.91,SSW,205,7.0,10.0,87,0.00,,,0.00,weatherlink.com 1.10,2013-08-28 17:21:00,
2013-08-28 10:36:00,64.5,61.0,29.91,SSE,154,7.0,10.0,87,0.00,,,0.00,weatherlink.com 1.10,2013-08-28 17:36:00,
2013-08-28 11:21:00,66.6,62.0,29.91,SE,141,7.0,10.0,84,0.00,,,0.00,weatherlink.com 1.10,2013-08-28 18:21:00,
2013-08-28 11:36:00,67.1,62.0,29.91,SSW,208,9.0,14.0,83,0.00,,,0.00,weatherlink.com 1.10,2013-08-28 18:36:00,
2013-08-28 11:51:00,66.8,62.0,29.92,SW,214,4.0,11.0,85,0.00,,,0.00,weatherlink.com 1.10,2013-08-28 18:51:00,
2013-08-28 12:06:00,67.5,62.0,29.91,SSW,193,6.0,12.0,83,0.00,,,0.00,weatherlink.com 1.10,2013-08-28 19:06:00,
2013-08-28 12:21:00,67.9,63.0,29.91,SW,228,10.0,12.0,83,0.00,,,0.00,weatherlink.com 1.10,2013-08-28 19:21:00,
2013-08-28 12:36:00,69.2,63.0,29.91,WSW,242,7.0,10.0,81,0.00,,,0.00,weatherlink.com 1.10,2013-08-28 19:36:00,
2013-08-28 12:51:00,69.4,63.0,29.91,SSW,207,7.0,11.0,80,0.00,,,0.00,weatherlink.com 1.10,2013-08-28 19:51:00,
2013-08-28 13:06:00,69.4,63.0,29.90,SSE,152,7.0,14.0,81,0.00,,,0.00,weatherlink.com 1.10,2013-08-28 20:06:00,
2013-08-28 13:21:00,69.9,64.0,29.90,SSE,152,7.0,15.0,80,0.00,,,0.00,weatherlink.com 1.10,2013-08-28 20:21:00,
2013-08-28 13:36:00,70.3,64.0,29.90,SE,139,8.0,15.0,79,0.00,,,0.00,weatherlink.com 1.10,2013-08-28 20:36:00,
2013-08-28 13:51:00,70.0,63.0,29.89,South,188,8.0,16.0,79,0.00,,,0.00,weatherlink.com 1.10,2013-08-28 20:51:00,
2013-08-28 14:06:00,69.7,63.0,29.89,SSW,193,9.0,14.0,80,0.00,,,0.00,weatherlink.com 1.10,2013-08-28 21:06:00,
2013-08-28 14:21:00,70.0,64.0,29.88,SE,138,6.0,16.0,80,0.00,,,0.00,weatherlink.com 1.10,2013-08-28 21:21:00,
2013-08-28 14:36:00,71.4,64.0,29.88,SSE,152,8.0,17.0,77,0.00,,,0.00,weatherlink.com 1.10,2013-08-28 21:36:00,
2013-08-28 14:51:00,71.4,64.0,29.88,SW,214,5.0,15.0,78,0.00,,,0.00,weatherlink.com 1.10,2013-08-28 21:51:00,
2013-08-28 15:06:00,71.7,64.0,29.87,SSE,158,12.0,14.0,76,0.00,,,0.00,weatherlink.com 1.10,2013-08-28 22:06:00,
2013-08-28 15:21:00,71.4,64.0,29.87,SSW,204,8.0,15.0,78,0.00,,,0.00,weatherlink.com 1.10,2013-08-28 22:21:00,
2013-08-28 15:36:00,71.6,64.0,29.87,WSW,246,6.0,16.0,77,0.00,,,0.00,weatherlink.com 1.10,2013-08-28 22:36:00,
2013-08-28 15:51:00,71.9,64.0,29.87,South,170,4.0,17.0,77,0.00,,,0.00,weatherlink.com 1.10,2013-08-28 22:51:00,
2013-08-28 16:06:00,71.3,64.0,29.86,SSE,165,13.0,17.0,77,0.00,,,0.00,weatherlink.com 1.10,2013-08-28 23:06:00,
2013-08-28 16:21:00,71.5,64.0,29.86,South,176,10.0,18.0,77,0.00,,,0.00,weatherlink.com 1.10,2013-08-28 23:21:00,
2013-08-28 16:37:00,71.7,64.0,29.86,SE,140,5.0,16.0,77,0.00,,,0.00,weatherlink.com 1.10,2013-08-28 23:37:00,
2013-08-28 16:52:00,71.4,64.0,29.86,SE,131,7.0,14.0,77,0.00,,,0.00,weatherlink.com 1.10,2013-08-28 23:52:00,
2013-08-28 17:07:00,70.9,64.0,29.86,SE,143,11.0,17.0,78,0.00,,,0.00,weatherlink.com 1.10,2013-08-29 00:07:00,
2013-08-28 17:22:00,70.9,64.0,29.86,SSE,158,8.0,15.0,78,0.00,,,0.00,weatherlink.com 1.10,2013-08-29 00:22:00,
2013-08-28 17:37:00,70.5,64.0,29.86,SSE,150,6.0,16.0,79,0.00,,,0.00,weatherlink.com 1.10,2013-08-29 00:37:00,
2013-08-28 17:52:00,70.7,64.0,29.85,SE,146,5.0,16.0,79,0.00,,,0.00,weatherlink.com 1.10,2013-08-29 00:52:00,
2013-08-28 18:07:00,70.6,64.0,29.85,SSE,160,3.0,14.0,79,0.00,,,0.00,weatherlink.com 1.10,2013-08-29 01:07:00,
2013-08-28 18:22:00,69.5,63.0,29.85,SSE,147,6.0,14.0,81,0.00,,,0.00,weatherlink.com 1.10,2013-08-29 01:22:00,
2013-08-28 18:37:00,68.8,63.0,29.85,South,174,5.0,14.0,82,0.00,,,0.00,weatherlink.com 1.10,2013-08-29 01:37:00,
2013-08-28 18:52:00,68.1,63.0,29.86,SE,131,9.0,14.0,83,0.00,,,0.00,weatherlink.com 1.10,2013-08-29 01:52:00,
2013-08-28 19:07:00,67.6,63.0,29.86,South,174,5.0,15.0,84,0.00,,,0.00,weatherlink.com 1.10,2013-08-29 02:07:00,
2013-08-28 19:22:00,66.9,62.0,29.86,SSE,166,7.0,12.0,85,0.00,,,0.00,weatherlink.com 1.10,2013-08-29 02:22:00,
2013-08-28 19:37:00,65.8,62.0,29.86,ESE,110,5.0,11.0,87,0.00,,,0.00,weatherlink.com 1.10,2013-08-29 02:37:00,
2013-08-28 19:52:00,64.5,61.0,29.86,ESE,115,5.0,10.0,89,0.00,,,0.00,weatherlink.com 1.10,2013-08-29 02:52:00,
2013-08-28 20:07:00,63.4,61.0,29.86,ESE,103,2.0,12.0,91,0.00,,,0.00,weatherlink.com 1.10,2013-08-29 03:07:00,
2013-08-28 20:22:00,63.0,61.0,29.87,East,98,5.0,10.0,92,0.00,,,0.00,weatherlink.com 1.10,2013-08-29 03:22:00,
2013-08-28 20:37:00,62.7,61.0,29.88,South,184,8.0,13.0,93,0.00,,,0.00,weatherlink.com 1.10,2013-08-29 03:37:00,
2013-08-28 20:52:00,62.5,61.0,29.88,SSW,212,2.0,14.0,94,0.00,,,0.00,weatherlink.com 1.10,2013-08-29 03:52:00,
2013-08-28 21:07:00,62.4,61.0,29.89,SSE,168,3.0,12.0,94,0.00,,,0.00,weatherlink.com 1.10,2013-08-29 04:07:00,
2013-08-28 21:22:00,62.3,61.0,29.89,South,181,5.0,13.0,94,0.00,,,0.00,weatherlink.com 1.10,2013-08-29 04:22:00,
2013-08-28 21:37:00,62.2,61.0,29.90,SSW,197,5.0,12.0,94,0.00,,,0.00,weatherlink.com 1.10,2013-08-29 04:37:00,
2013-08-28 21:52:00,61.9,61.0,29.91,SSE,152,4.0,15.0,95,0.00,,,0.00,weatherlink.com 1.10,2013-08-29 04:52:00,
2013-08-28 22:07:00,61.6,60.0,29.91,SE,142,7.0,12.0,95,0.00,,,0.00,weatherlink.com 1.10,2013-08-29 05:07:00,
2013-08-28 22:22:00,61.6,61.0,29.91,South,169,3.0,12.0,96,0.00,,,0.00,weatherlink.com 1.10,2013-08-29 05:22:00,
2013-08-28 22:37:00,61.5,60.0,29.91,South,171,5.0,12.0,96,0.00,,,0.00,weatherlink.com 1.10,2013-08-29 05:37:00,
2013-08-28 22:52:00,61.6,61.0,29.91,South,182,7.0,9.0,96,0.00,,,0.00,weatherlink.com 1.10,2013-08-29 05:52:00,
2013-08-28 23:07:00,61.7,61.0,29.91,SSW,207,5.0,12.0,96,0.00,,,0.00,weatherlink.com 1.10,2013-08-29 06:07:00,
2013-08-28 23:22:00,62.0,61.0,29.91,SSE,156,4.0,10.0,96,0.00,,,0.00,weatherlink.com 1.10,2013-08-29 06:22:00,
2013-08-28 23:37:00,62.0,61.0,29.92,WSW,246,4.0,11.0,96,0.00,,,0.00,weatherlink.com 1.10,2013-08-29 06:37:00,
2013-08-28 23:52:00,61.8,61.0,29.92,South,181,6.0,11.0,96,0.00,,,0.00,weatherlink.com 1.10,2013-08-29 06:52:00,